LZB808 LGAV-LBSF
Flight info
| Callsign | LZB808 |
|---|---|
| Flight time | 0h 53m |
| Altitude | 38000 |
| Route | KRO DCT NEVRA UG33 KOROS UN133 PEREN UL863 EVIVI Y94 VANET |
| Aircraft | A320/M-SDE3FGHIRWY/LB1 |
Departure
| Time | 2026-05-07 16:21 |
|---|---|
| Airport | Athens Eleftherios Venizelos International Airport (LGAV) |
Arrival
| Time | 2026-05-07 17:14 |
|---|---|
| Airport | Sofia Airport (LBSF) |
| Time | Latitude | Longitude | Altitude | Speed | Heading |
|---|---|---|---|---|---|
| 2026-05-07 15:54 | 37.93866 | 23.95089 | 322 ft | 0 kts | 307° |
| 2026-05-07 16:04 | 37.93862 | 23.95097 | 323 ft | 3 kts | 308° |
| 2026-05-07 16:05 | 37.93849 | 23.95117 | 323 ft | 3 kts | 309° |
| 2026-05-07 16:05 | 37.93841 | 23.95130 | 323 ft | 3 kts | 311° |
| 2026-05-07 16:05 | 37.93827 | 23.95149 | 323 ft | 3 kts | 320° |
| 2026-05-07 16:05 | 37.93811 | 23.95162 | 323 ft | 3 kts | 351° |
| 2026-05-07 16:06 | 37.93799 | 23.95161 | 323 ft | 1 kts | 38° |
| 2026-05-07 16:10 | 37.93801 | 23.95163 | 322 ft | 1 kts | 38° |
| 2026-05-07 16:10 | 37.93825 | 23.95187 | 322 ft | 11 kts | 37° |
| 2026-05-07 16:10 | 37.93872 | 23.95269 | 322 ft | 12 kts | 69° |
| 2026-05-07 16:11 | 37.93904 | 23.95366 | 322 ft | 12 kts | 65° |
| 2026-05-07 16:11 | 37.93964 | 23.95436 | 322 ft | 12 kts | 35° |
| 2026-05-07 16:11 | 37.94032 | 23.95500 | 322 ft | 12 kts | 37° |
| 2026-05-07 16:11 | 37.94100 | 23.95566 | 322 ft | 12 kts | 37° |
| 2026-05-07 16:12 | 37.94169 | 23.95632 | 322 ft | 13 kts | 37° |
| 2026-05-07 16:12 | 37.94245 | 23.95704 | 322 ft | 14 kts | 37° |
| 2026-05-07 16:12 | 37.94326 | 23.95780 | 322 ft | 15 kts | 37° |
| 2026-05-07 16:12 | 37.94358 | 23.95880 | 322 ft | 14 kts | 113° |
| 2026-05-07 16:13 | 37.94385 | 23.95977 | 322 ft | 13 kts | 40° |
| 2026-05-07 16:13 | 37.94458 | 23.96047 | 322 ft | 13 kts | 37° |
| 2026-05-07 16:13 | 37.94533 | 23.96119 | 322 ft | 14 kts | 37° |
| 2026-05-07 16:13 | 37.94608 | 23.96191 | 322 ft | 14 kts | 37° |
| 2026-05-07 16:14 | 37.94688 | 23.96267 | 322 ft | 14 kts | 37° |
| 2026-05-07 16:14 | 37.94770 | 23.96345 | 322 ft | 15 kts | 37° |
| 2026-05-07 16:14 | 37.94853 | 23.96424 | 322 ft | 15 kts | 37° |
| 2026-05-07 16:14 | 37.94938 | 23.96504 | 322 ft | 15 kts | 37° |
| 2026-05-07 16:15 | 37.95025 | 23.96586 | 322 ft | 16 kts | 36° |
| 2026-05-07 16:15 | 37.95114 | 23.96669 | 322 ft | 16 kts | 37° |
| 2026-05-07 16:15 | 37.95204 | 23.96756 | 322 ft | 16 kts | 37° |
| 2026-05-07 16:15 | 37.95284 | 23.96835 | 322 ft | 5 kts | 38° |
| 2026-05-07 16:16 | 37.95315 | 23.96861 | 322 ft | 5 kts | 36° |
| 2026-05-07 16:16 | 37.95347 | 23.96890 | 322 ft | 6 kts | 37° |
| 2026-05-07 16:16 | 37.95378 | 23.96922 | 322 ft | 6 kts | 44° |
| 2026-05-07 16:16 | 37.95389 | 23.96969 | 322 ft | 6 kts | 108° |
| 2026-05-07 16:17 | 37.95362 | 23.97006 | 322 ft | 6 kts | 152° |
| 2026-05-07 16:17 | 37.95352 | 23.97012 | 322 ft | 0 kts | 160° |
| 2026-05-07 16:19 | 37.95332 | 23.97020 | 322 ft | 4 kts | 168° |
| 2026-05-07 16:19 | 37.95305 | 23.97025 | 322 ft | 4 kts | 170° |
| 2026-05-07 16:19 | 37.95275 | 23.97033 | 322 ft | 5 kts | 167° |
| 2026-05-07 16:19 | 37.95242 | 23.97042 | 322 ft | 5 kts | 169° |
| 2026-05-07 16:20 | 37.95209 | 23.97036 | 322 ft | 5 kts | 215° |
| 2026-05-07 16:20 | 37.95178 | 23.97008 | 322 ft | 7 kts | 216° |
| 2026-05-07 16:20 | 37.95053 | 23.96887 | 323 ft | 55 kts | 217° |
| 2026-05-07 16:20 | 37.94498 | 23.96363 | 323 ft | 139 kts | 217° |
| 2026-05-07 16:21 | 37.93587 | 23.95508 | 700 ft | 168 kts | 216° |
| 2026-05-07 16:21 | 37.92662 | 23.94651 | 1773 ft | 163 kts | 217° |
| 2026-05-07 16:21 | 37.91765 | 23.93801 | 2725 ft | 159 kts | 215° |
| 2026-05-07 16:21 | 37.90836 | 23.93089 | 3544 ft | 155 kts | 205° |
| 2026-05-07 16:22 | 37.89813 | 23.92465 | 4070 ft | 171 kts | 204° |
| 2026-05-07 16:22 | 37.88630 | 23.92101 | 4626 ft | 183 kts | 179° |
| 2026-05-07 16:22 | 37.87374 | 23.92579 | 5113 ft | 202 kts | 145° |
| 2026-05-07 16:22 | 37.86534 | 23.94165 | 5405 ft | 234 kts | 109° |
| 2026-05-07 16:23 | 37.86101 | 23.96159 | 6391 ft | 233 kts | 106° |
| 2026-05-07 16:23 | 37.85705 | 23.98131 | 7432 ft | 232 kts | 105° |
| 2026-05-07 16:23 | 37.85313 | 24.00113 | 8352 ft | 233 kts | 105° |
| 2026-05-07 16:23 | 37.84916 | 24.02156 | 9055 ft | 245 kts | 102° |
| 2026-05-07 16:24 | 37.84839 | 24.04357 | 9703 ft | 260 kts | 78° |
| 2026-05-07 16:24 | 37.85593 | 24.06447 | 10357 ft | 274 kts | 54° |
| 2026-05-07 16:24 | 37.87002 | 24.08174 | 10900 ft | 293 kts | 34° |
| 2026-05-07 16:24 | 37.88832 | 24.09546 | 11475 ft | 310 kts | 26° |
| 2026-05-07 16:25 | 37.90779 | 24.10862 | 12092 ft | 325 kts | 26° |
| 2026-05-07 16:25 | 37.92810 | 24.12263 | 12678 ft | 340 kts | 27° |
| 2026-05-07 16:25 | 37.94909 | 24.13782 | 13229 ft | 355 kts | 28° |
| 2026-05-07 16:25 | 37.97031 | 24.15380 | 13846 ft | 364 kts | 29° |
| 2026-05-07 16:26 | 37.99248 | 24.17074 | 14646 ft | 369 kts | 29° |
| 2026-05-07 16:26 | 38.01515 | 24.18619 | 15386 ft | 370 kts | 17° |
| 2026-05-07 16:26 | 38.03981 | 24.19505 | 16163 ft | 368 kts | 7° |
| 2026-05-07 16:26 | 38.06500 | 24.20127 | 16896 ft | 371 kts | 6° |
| 2026-05-07 16:27 | 38.09015 | 24.20736 | 17588 ft | 375 kts | 7° |
| 2026-05-07 16:27 | 38.11579 | 24.21454 | 18263 ft | 380 kts | 9° |
| 2026-05-07 16:27 | 38.14159 | 24.22282 | 18913 ft | 384 kts | 10° |
| 2026-05-07 16:27 | 38.16757 | 24.23167 | 19544 ft | 388 kts | 11° |
| 2026-05-07 16:28 | 38.19378 | 24.24053 | 20155 ft | 392 kts | 10° |
| 2026-05-07 16:28 | 38.22030 | 24.24918 | 20745 ft | 395 kts | 9° |
| 2026-05-07 16:28 | 38.24708 | 24.25766 | 21322 ft | 398 kts | 9° |
| 2026-05-07 16:28 | 38.27405 | 24.26615 | 21897 ft | 401 kts | 9° |
| 2026-05-07 16:29 | 38.30125 | 24.27478 | 22446 ft | 405 kts | 9° |
| 2026-05-07 16:29 | 38.32863 | 24.28358 | 22977 ft | 408 kts | 9° |
| 2026-05-07 16:29 | 38.35626 | 24.29254 | 23485 ft | 411 kts | 9° |
| 2026-05-07 16:29 | 38.38411 | 24.30156 | 23975 ft | 415 kts | 9° |
| 2026-05-07 16:30 | 38.41216 | 24.31061 | 24446 ft | 418 kts | 9° |
| 2026-05-07 16:30 | 38.44046 | 24.31972 | 24916 ft | 421 kts | 9° |
| 2026-05-07 16:30 | 38.46893 | 24.32888 | 25376 ft | 423 kts | 9° |
| 2026-05-07 16:30 | 38.49758 | 24.33813 | 25819 ft | 426 kts | 9° |
| 2026-05-07 16:31 | 38.52645 | 24.34745 | 26239 ft | 429 kts | 10° |
| 2026-05-07 16:31 | 38.55547 | 24.35685 | 26662 ft | 432 kts | 10° |
| 2026-05-07 16:31 | 38.58471 | 24.36634 | 27076 ft | 435 kts | 10° |
| 2026-05-07 16:31 | 38.61401 | 24.37591 | 27575 ft | 434 kts | 8° |
| 2026-05-07 16:32 | 38.64307 | 24.38539 | 28240 ft | 429 kts | 8° |
| 2026-05-07 16:32 | 38.67201 | 24.39477 | 28659 ft | 430 kts | 8° |
| 2026-05-07 16:32 | 38.70114 | 24.40417 | 28989 ft | 433 kts | 8° |
| 2026-05-07 16:32 | 38.73048 | 24.41366 | 29331 ft | 436 kts | 9° |
| 2026-05-07 16:33 | 38.75988 | 24.42321 | 29759 ft | 436 kts | 9° |
| 2026-05-07 16:33 | 38.78923 | 24.43279 | 30221 ft | 435 kts | 9° |
| 2026-05-07 16:33 | 38.81858 | 24.44238 | 30641 ft | 435 kts | 9° |
| 2026-05-07 16:33 | 38.84786 | 24.45195 | 31059 ft | 435 kts | 9° |
| 2026-05-07 16:34 | 38.87715 | 24.46154 | 31499 ft | 434 kts | 9° |
| 2026-05-07 16:34 | 38.90639 | 24.47109 | 31899 ft | 434 kts | 9° |
| 2026-05-07 16:34 | 38.93524 | 24.48055 | 32295 ft | 433 kts | 8° |
| 2026-05-07 16:34 | 38.96435 | 24.49009 | 32782 ft | 430 kts | 8° |
| 2026-05-07 16:35 | 38.99339 | 24.49958 | 33143 ft | 431 kts | 8° |
| 2026-05-07 16:35 | 39.02242 | 24.50910 | 33516 ft | 431 kts | 8° |
| 2026-05-07 16:35 | 39.05142 | 24.51862 | 33887 ft | 430 kts | 8° |
| 2026-05-07 16:35 | 39.08042 | 24.52814 | 34116 ft | 430 kts | 8° |
| 2026-05-07 16:36 | 39.10938 | 24.53768 | 34116 ft | 429 kts | 9° |
| 2026-05-07 16:36 | 39.16761 | 24.54980 | 34107 ft | 418 kts | 351° |
| 2026-05-07 16:36 | 39.19582 | 24.54277 | 34117 ft | 410 kts | 337° |
| 2026-05-07 16:37 | 39.22256 | 24.53002 | 34126 ft | 411 kts | 334° |
| 2026-05-07 16:37 | 39.27575 | 24.50235 | 34115 ft | 414 kts | 334° |
| 2026-05-07 16:38 | 39.32991 | 24.47639 | 34124 ft | 416 kts | 336° |
| 2026-05-07 16:38 | 39.38446 | 24.45108 | 34089 ft | 418 kts | 336° |
| 2026-05-07 16:39 | 39.43904 | 24.42479 | 34059 ft | 419 kts | 335° |
| 2026-05-07 16:39 | 39.49374 | 24.39845 | 34056 ft | 420 kts | 336° |
| 2026-05-07 16:40 | 39.54869 | 24.37220 | 34057 ft | 422 kts | 336° |
| 2026-05-07 16:40 | 39.60378 | 24.34573 | 34058 ft | 423 kts | 336° |
| 2026-05-07 16:41 | 39.65909 | 24.31909 | 34060 ft | 425 kts | 336° |
| 2026-05-07 16:41 | 39.71457 | 24.29233 | 34061 ft | 426 kts | 336° |
| 2026-05-07 16:42 | 39.77022 | 24.26547 | 34063 ft | 427 kts | 336° |
| 2026-05-07 16:42 | 39.82596 | 24.23852 | 34071 ft | 428 kts | 336° |
| 2026-05-07 16:43 | 39.88182 | 24.21142 | 34072 ft | 429 kts | 336° |
| 2026-05-07 16:43 | 39.93773 | 24.18429 | 34086 ft | 429 kts | 336° |
| 2026-05-07 16:44 | 39.99371 | 24.15709 | 34078 ft | 430 kts | 336° |
| 2026-05-07 16:44 | 40.04973 | 24.12978 | 34097 ft | 430 kts | 336° |
| 2026-05-07 16:45 | 40.10541 | 24.10260 | 34105 ft | 430 kts | 336° |
| 2026-05-07 16:45 | 40.16184 | 24.07504 | 34116 ft | 430 kts | 336° |
| 2026-05-07 16:46 | 40.21783 | 24.04763 | 34125 ft | 430 kts | 336° |
| 2026-05-07 16:46 | 40.27346 | 24.02032 | 34135 ft | 430 kts | 336° |
| 2026-05-07 16:47 | 40.32945 | 23.99278 | 34141 ft | 430 kts | 336° |
| 2026-05-07 16:47 | 40.38546 | 23.96523 | 34145 ft | 430 kts | 336° |
| 2026-05-07 16:48 | 40.44141 | 23.93766 | 34142 ft | 429 kts | 336° |
| 2026-05-07 16:48 | 40.49729 | 23.91002 | 34146 ft | 429 kts | 335° |
| 2026-05-07 16:49 | 40.55306 | 23.88242 | 34131 ft | 428 kts | 335° |
| 2026-05-07 16:49 | 40.60879 | 23.85478 | 34101 ft | 428 kts | 335° |
| 2026-05-07 16:50 | 40.66457 | 23.82705 | 34062 ft | 428 kts | 335° |
| 2026-05-07 16:50 | 40.72028 | 23.79934 | 34056 ft | 428 kts | 335° |
| 2026-05-07 16:51 | 40.77602 | 23.77158 | 34058 ft | 428 kts | 335° |
| 2026-05-07 16:51 | 40.83173 | 23.74374 | 34061 ft | 428 kts | 335° |
| 2026-05-07 16:52 | 40.88753 | 23.71584 | 34068 ft | 428 kts | 335° |
| 2026-05-07 16:52 | 40.94329 | 23.68789 | 34066 ft | 429 kts | 335° |
| 2026-05-07 16:53 | 40.98966 | 23.66462 | 34088 ft | 429 kts | 335° |
| 2026-05-07 16:53 | 41.04548 | 23.63652 | 34088 ft | 429 kts | 334° |
| 2026-05-07 16:54 | 41.10135 | 23.60837 | 34092 ft | 430 kts | 335° |
| 2026-05-07 16:54 | 41.15727 | 23.58017 | 34083 ft | 430 kts | 334° |
| 2026-05-07 16:55 | 41.21326 | 23.55184 | 34076 ft | 430 kts | 334° |
| 2026-05-07 16:55 | 41.26922 | 23.52349 | 34068 ft | 431 kts | 334° |
| 2026-05-07 16:56 | 41.32528 | 23.49505 | 34058 ft | 431 kts | 334° |
| 2026-05-07 16:56 | 41.41044 | 23.45587 | 34056 ft | 434 kts | 346° |
| 2026-05-07 16:57 | 41.44038 | 23.45208 | 33828 ft | 429 kts | 352° |
| 2026-05-07 16:57 | 41.47007 | 23.45080 | 33303 ft | 426 kts | 354° |
| 2026-05-07 16:57 | 41.49976 | 23.45029 | 32475 ft | 429 kts | 355° |
| 2026-05-07 16:57 | 41.52977 | 23.44959 | 31560 ft | 433 kts | 355° |
| 2026-05-07 16:58 | 41.56005 | 23.44827 | 30497 ft | 439 kts | 354° |
| 2026-05-07 16:58 | 41.59074 | 23.44645 | 29462 ft | 443 kts | 354° |
| 2026-05-07 16:58 | 41.62164 | 23.44453 | 28456 ft | 446 kts | 354° |
| 2026-05-07 16:58 | 41.65272 | 23.44279 | 27407 ft | 449 kts | 354° |
| 2026-05-07 16:59 | 41.68402 | 23.44124 | 26329 ft | 451 kts | 355° |
| 2026-05-07 16:59 | 41.71534 | 23.43981 | 25292 ft | 451 kts | 355° |
| 2026-05-07 16:59 | 41.74682 | 23.43834 | 24092 ft | 454 kts | 355° |
| 2026-05-07 16:59 | 41.77837 | 23.43677 | 23083 ft | 453 kts | 355° |
| 2026-05-07 17:00 | 41.80962 | 23.43517 | 22445 ft | 445 kts | 355° |
| 2026-05-07 17:00 | 41.84050 | 23.43730 | 21886 ft | 444 kts | 5° |
| 2026-05-07 17:00 | 41.87074 | 23.44472 | 21095 ft | 440 kts | 8° |
| 2026-05-07 17:00 | 41.90063 | 23.45369 | 19993 ft | 442 kts | 11° |
| 2026-05-07 17:01 | 41.93087 | 23.46298 | 18645 ft | 449 kts | 10° |
| 2026-05-07 17:01 | 41.96126 | 23.47205 | 17873 ft | 443 kts | 10° |
| 2026-05-07 17:01 | 41.99124 | 23.48089 | 16964 ft | 439 kts | 10° |
| 2026-05-07 17:01 | 42.02091 | 23.48921 | 16248 ft | 432 kts | 9° |
| 2026-05-07 17:02 | 42.05013 | 23.49706 | 15522 ft | 425 kts | 9° |
| 2026-05-07 17:02 | 42.07896 | 23.50453 | 14842 ft | 418 kts | 9° |
| 2026-05-07 17:02 | 42.10726 | 23.51179 | 14246 ft | 410 kts | 9° |
| 2026-05-07 17:02 | 42.13509 | 23.51879 | 13526 ft | 405 kts | 7° |
| 2026-05-07 17:03 | 42.16279 | 23.52530 | 12736 ft | 402 kts | 9° |
| 2026-05-07 17:03 | 42.19005 | 23.53274 | 11914 ft | 399 kts | 10° |
| 2026-05-07 17:03 | 42.21717 | 23.54061 | 11189 ft | 395 kts | 11° |
| 2026-05-07 17:03 | 42.24351 | 23.54890 | 10731 ft | 383 kts | 11° |
| 2026-05-07 17:04 | 42.26880 | 23.55661 | 10565 ft | 363 kts | 11° |
| 2026-05-07 17:04 | 42.29277 | 23.56372 | 10352 ft | 343 kts | 9° |
| 2026-05-07 17:04 | 42.31555 | 23.56956 | 10111 ft | 323 kts | 6° |
| 2026-05-07 17:04 | 42.33693 | 23.57462 | 10074 ft | 302 kts | 11° |
| 2026-05-07 17:05 | 42.35741 | 23.58011 | 9666 ft | 300 kts | 10° |
| 2026-05-07 17:05 | 42.37775 | 23.58594 | 9209 ft | 299 kts | 11° |
| 2026-05-07 17:05 | 42.39805 | 23.59172 | 8767 ft | 296 kts | 7° |
| 2026-05-07 17:05 | 42.41822 | 23.59651 | 8361 ft | 293 kts | 10° |
| 2026-05-07 17:06 | 42.43798 | 23.60269 | 7936 ft | 290 kts | 12° |
| 2026-05-07 17:06 | 42.45749 | 23.60914 | 7550 ft | 286 kts | 12° |
| 2026-05-07 17:06 | 42.47682 | 23.61522 | 7069 ft | 285 kts | 12° |
| 2026-05-07 17:06 | 42.49622 | 23.62094 | 6611 ft | 286 kts | 11° |
| 2026-05-07 17:07 | 42.51569 | 23.62615 | 6251 ft | 284 kts | 9° |
| 2026-05-07 17:07 | 42.53480 | 23.63096 | 6013 ft | 273 kts | 10° |
| 2026-05-07 17:07 | 42.55289 | 23.63572 | 5963 ft | 255 kts | 10° |
| 2026-05-07 17:07 | 42.56965 | 23.64032 | 5988 ft | 236 kts | 11° |
| 2026-05-07 17:08 | 42.58516 | 23.64473 | 5985 ft | 221 kts | 11° |
| 2026-05-07 17:08 | 42.60024 | 23.64919 | 5967 ft | 226 kts | 11° |
| 2026-05-07 17:08 | 42.61596 | 23.65262 | 5917 ft | 231 kts | 2° |
| 2026-05-07 17:08 | 42.63180 | 23.65340 | 5731 ft | 226 kts | 359° |
| 2026-05-07 17:09 | 42.64743 | 23.65365 | 5430 ft | 224 kts | 360° |
| 2026-05-07 17:09 | 42.66305 | 23.65429 | 5079 ft | 225 kts | 0° |
| 2026-05-07 17:09 | 42.67828 | 23.65192 | 4787 ft | 218 kts | 334° |
| 2026-05-07 17:09 | 42.68807 | 23.63807 | 4562 ft | 200 kts | 287° |
| 2026-05-07 17:10 | 42.68843 | 23.61972 | 4282 ft | 192 kts | 263° |
| 2026-05-07 17:10 | 42.68721 | 23.60193 | 4041 ft | 187 kts | 266° |
| 2026-05-07 17:10 | 42.68721 | 23.58468 | 3802 ft | 175 kts | 270° |
| 2026-05-07 17:10 | 42.68754 | 23.56870 | 3541 ft | 165 kts | 271° |
| 2026-05-07 17:11 | 42.68827 | 23.55381 | 3372 ft | 151 kts | 273° |
| 2026-05-07 17:11 | 42.68910 | 23.54013 | 3165 ft | 142 kts | 274° |
| 2026-05-07 17:11 | 42.68992 | 23.52720 | 2998 ft | 135 kts | 274° |
| 2026-05-07 17:11 | 42.69064 | 23.51447 | 2834 ft | 135 kts | 274° |
| 2026-05-07 17:12 | 42.69136 | 23.50177 | 2632 ft | 135 kts | 275° |
| 2026-05-07 17:12 | 42.69210 | 23.48910 | 2465 ft | 135 kts | 276° |
| 2026-05-07 17:12 | 42.69289 | 23.47639 | 2290 ft | 135 kts | 275° |
| 2026-05-07 17:12 | 42.69364 | 23.46359 | 2126 ft | 136 kts | 276° |
| 2026-05-07 17:13 | 42.69439 | 23.45078 | 1958 ft | 136 kts | 276° |
| 2026-05-07 17:13 | 42.69520 | 23.43796 | 1782 ft | 136 kts | 276° |
| 2026-05-07 17:13 | 42.69594 | 23.42608 | 1757 ft | 106 kts | 275° |
| 2026-05-07 17:13 | 42.69641 | 23.41837 | 1757 ft | 65 kts | 275° |
| 2026-05-07 17:14 | 42.69674 | 23.41284 | 1757 ft | 54 kts | 276° |
| 2026-05-07 17:14 | 42.69664 | 23.40906 | 1757 ft | 22 kts | 252° |
| 2026-05-07 17:14 | 42.69618 | 23.40727 | 1757 ft | 16 kts | 244° |
| 2026-05-07 17:14 | 42.69567 | 23.40586 | 1756 ft | 17 kts | 244° |
| 2026-05-07 17:15 | 42.69487 | 23.40475 | 1756 ft | 17 kts | 200° |
| 2026-05-07 17:15 | 42.69373 | 23.40428 | 1756 ft | 18 kts | 197° |
| 2026-05-07 17:15 | 42.69251 | 23.40376 | 1756 ft | 19 kts | 197° |
| 2026-05-07 17:15 | 42.69140 | 23.40387 | 1756 ft | 17 kts | 119° |
| 2026-05-07 17:16 | 42.69131 | 23.40419 | 1757 ft | 2 kts | 110° |
| 2026-05-07 17:16 | 42.69120 | 23.40434 | 1757 ft | 2 kts | 155° |
| 2026-05-07 17:16 | 42.69104 | 23.40434 | 1757 ft | 2 kts | 190° |
| 2026-05-07 17:16 | 42.69087 | 23.40429 | 1757 ft | 3 kts | 193° |
| 2026-05-07 17:17 | 42.69070 | 23.40423 | 1757 ft | 3 kts | 195° |
| 2026-05-07 17:17 | 42.69053 | 23.40416 | 1757 ft | 0 kts | 195° |